Time;durP1;ratioP1;P1;durP2;ratioP2;P2;SDS_P1;SDS_P2;PMS_P1;PMS_P2;Temp;Humidity;BMP_temperature;BMP_pressure;BME280_temperature;BME280_humidity;BME280_pressure;Samples;Min_cycle;Max_cycle;Signal;HPM_P1;HPM_P2
2022/07/14 00:01:41;;;;;;;;;;;487.10;1715.20;;;;;;5090920;28;19977;-56
2022/07/14 00:04:07;;;;;;;;;;;487.00;1740.80;;;;;;5091067;28;19912;-57
2022/07/14 00:06:33;;;;;;;;;;;487.00;1740.80;;;;;;5090972;28;19951;-56
2022/07/14 00:08:59;;;;;;;;;;;487.00;1715.20;;;;;;5090970;28;20284;-56
2022/07/14 00:11:25;;;;;;;;;;;487.00;1715.20;;;;;;5091032;28;19908;-56
2022/07/14 00:13:51;;;;;;;;;;;487.00;1740.80;;;;;;5091067;28;20290;-56
2022/07/14 00:16:17;;;;;;;;;;;487.00;1715.20;;;;;;5090824;28;19915;-57
2022/07/14 00:18:46;;;;;;;;;;;487.00;1740.80;;;;;;5090883;28;20327;-56
2022/07/14 00:21:15;;;;;;;;;;;487.00;1740.80;;;;;;5091125;28;19951;-56
2022/07/14 00:23:45;;;;;;;;;;;487.00;1740.80;;;;;;5090608;28;19960;-57
2022/07/14 00:26:11;;;;;;;;;;;487.00;1740.80;;;;;;5090616;28;19908;-56
2022/07/14 00:28:36;;;;;;;;;;;487.00;1740.80;;;;;;5090477;28;20361;-56
2022/07/14 00:31:09;;;;;;;;;;;486.90;1766.40;;;;;;5090761;28;19963;-56
2022/07/14 00:33:35;;;;;;;;;;;486.80;1766.40;;;;;;5091033;28;20259;-57
2022/07/14 00:36:01;;;;;;;;;;;486.80;1766.40;;;;;;5090774;28;19916;-56
2022/07/14 00:38:27;;;;;;;;;;;486.80;1766.40;;;;;;5090547;28;19915;-56
2022/07/14 00:40:52;;;;;;;;;;;486.80;1766.40;;;;;;5090526;28;19908;-56
2022/07/14 00:43:18;;;;;;;;;;;486.70;1766.40;;;;;;5090483;28;19916;-56
2022/07/14 00:45:44;;;;;;;;;;;486.70;1766.40;;;;;;5090458;28;19915;-56
2022/07/14 00:48:12;;;;;;;;;;;486.70;1766.40;;;;;;5090369;28;20358;-57
2022/07/14 00:50:41;;;;;;;;;;;486.70;1766.40;;;;;;5090455;28;19916;-56
2022/07/14 00:53:07;;;;;;;;;;;486.70;1792.00;;;;;;5090349;28;19959;-56
2022/07/14 00:55:33;;;;;;;;;;;486.70;1792.00;;;;;;5090607;28;19999;-57
2022/07/14 00:57:58;;;;;;;;;;;486.70;1792.00;;;;;;5090268;28;19947;-56
2022/07/14 01:00:24;;;;;;;;;;;486.70;1792.00;;;;;;5090157;28;19916;-57
2022/07/14 01:02:50;;;;;;;;;;;486.70;1792.00;;;;;;5090439;28;19947;-57
2022/07/14 01:05:15;;;;;;;;;;;486.60;1792.00;;;;;;5090482;28;19912;-56
2022/07/14 01:07:41;;;;;;;;;;;486.50;1792.00;;;;;;5090148;28;19962;-57
2022/07/14 01:10:07;;;;;;;;;;;486.60;1817.60;;;;;;5089982;28;19988;-57
2022/07/14 01:12:32;;;;;;;;;;;486.50;1817.60;;;;;;5093117;28;19916;-57
2022/07/14 01:14:58;;;;;;;;;;;486.40;1817.60;;;;;;5094102;28;20269;-57
2022/07/14 01:17:24;;;;;;;;;;;486.40;1817.60;;;;;;5094285;28;20025;-57
2022/07/14 01:19:49;;;;;;;;;;;486.40;1817.60;;;;;;5094316;28;19954;-56
2022/07/14 01:22:15;;;;;;;;;;;486.40;1817.60;;;;;;5094207;28;20297;-55
2022/07/14 01:24:41;;;;;;;;;;;486.40;1817.60;;;;;;5094257;28;19908;-57
2022/07/14 01:27:06;;;;;;;;;;;461.70;1843.20;;;;;;5093996;28;20304;-57
2022/07/14 01:29:32;;;;;;;;;;;461.70;1843.20;;;;;;5094210;28;19920;-56
2022/07/14 01:31:58;;;;;;;;;;;486.40;1817.60;;;;;;5093841;28;19908;-57
2022/07/14 01:34:23;;;;;;;;;;;486.40;1817.60;;;;;;5094010;28;19954;-57
2022/07/14 01:36:49;;;;;;;;;;;486.40;1817.60;;;;;;5093789;28;19908;-56
2022/07/14 01:39:15;;;;;;;;;;;486.40;1817.60;;;;;;5093916;28;19908;-57
2022/07/14 01:41:40;;;;;;;;;;;486.40;1817.60;;;;;;5093655;28;19908;-57
2022/07/14 01:44:06;;;;;;;;;;;486.40;1817.60;;;;;;5093557;28;19927;-56
2022/07/14 01:46:32;;;;;;;;;;;486.40;1843.20;;;;;;5093828;28;20358;-56
2022/07/14 01:48:58;;;;;;;;;;;461.70;1843.20;;;;;;5093799;28;20278;-57
2022/07/14 01:51:24;;;;;;;;;;;461.70;1843.20;;;;;;5093994;28;19919;-56
2022/07/14 01:53:50;;;;;;;;;;;461.70;1843.20;;;;;;5093742;28;19915;-56
2022/07/14 01:56:15;;;;;;;;;;;461.70;1843.20;;;;;;5093522;28;19916;-57
2022/07/14 01:58:41;;;;;;;;;;;461.70;1843.20;;;;;;5093476;28;19908;-57
2022/07/14 02:03:54;;;;;;;;;;;461.70;1843.20;;;;;;5093761;28;19915;-56
2022/07/14 02:06:20;;;;;;;;;;;461.60;1843.20;;;;;;5093507;28;19912;-56
2022/07/14 02:08:45;;;;;;;;;;;461.60;1843.20;;;;;;5093228;28;20417;-56
2022/07/14 02:13:55;;;;;;;;;;;461.60;1817.60;;;;;;5093210;28;19970;-56
2022/07/14 02:16:21;;;;;;;;;;;461.50;1843.20;;;;;;5093307;28;19940;-57
2022/07/14 02:18:47;;;;;;;;;;;461.50;1843.20;;;;;;5093119;28;19908;-56
2022/07/14 02:21:13;;;;;;;;;;;461.50;1843.20;;;;;;5093299;28;20301;-56
2022/07/14 02:23:38;;;;;;;;;;;461.50;1843.20;;;;;;5092883;28;19908;-56
2022/07/14 02:26:09;;;;;;;;;;;461.50;1843.20;;;;;;5093065;28;19940;-56
2022/07/14 02:28:35;;;;;;;;;;;461.50;1868.80;;;;;;5093092;28;19915;-56
2022/07/14 02:31:00;;;;;;;;;;;461.50;1843.20;;;;;;5092615;28;19920;-57
2022/07/14 02:33:26;;;;;;;;;;;461.50;1843.20;;;;;;5092751;28;20361;-57
2022/07/14 02:35:52;;;;;;;;;;;461.50;1868.80;;;;;;5092966;28;20347;-57
2022/07/14 02:38:17;;;;;;;;;;;461.50;1868.80;;;;;;5092800;28;19970;-57
2022/07/14 02:40:43;;;;;;;;;;;461.50;1868.80;;;;;;5092730;28;20345;-56
2022/07/14 02:43:09;;;;;;;;;;;461.50;1843.20;;;;;;5092627;28;20382;-56
2022/07/14 02:45:34;;;;;;;;;;;461.50;1843.20;;;;;;5092627;28;20365;-56
2022/07/14 02:48:00;;;;;;;;;;;461.50;1843.20;;;;;;5092479;28;19950;-56
2022/07/14 02:50:25;;;;;;;;;;;461.40;1868.80;;;;;;5092568;28;19944;-56
2022/07/14 02:52:51;;;;;;;;;;;461.40;1868.80;;;;;;5092862;28;19909;-56
2022/07/14 02:55:17;;;;;;;;;;;461.40;1868.80;;;;;;5092554;28;20349;-56
2022/07/14 02:57:42;;;;;;;;;;;461.40;1894.40;;;;;;5092426;28;19908;-57
2022/07/14 03:00:09;;;;;;;;;;;461.40;1894.40;;;;;;5091872;28;19912;-57
2022/07/14 03:02:34;;;;;;;;;;;461.40;1868.80;;;;;;5092554;28;19912;-55
2022/07/14 03:05:02;;;;;;;;;;;461.40;1868.80;;;;;;5092158;28;20336;-57
2022/07/14 03:07:27;;;;;;;;;;;461.40;1843.20;;;;;;5092024;28;19908;-57
2022/07/14 03:09:53;;;;;;;;;;;461.50;1843.20;;;;;;5092196;28;19916;-57
2022/07/14 03:12:18;;;;;;;;;;;461.50;1843.20;;;;;;5091964;28;19916;-57
2022/07/14 03:14:44;;;;;;;;;;;461.50;1868.80;;;;;;5092008;28;19912;-56
2022/07/14 03:17:09;;;;;;;;;;;461.50;1894.40;;;;;;5091850;28;19908;-56
2022/07/14 03:19:35;;;;;;;;;;;461.50;1894.40;;;;;;5092251;28;20000;-56
2022/07/14 03:22:01;;;;;;;;;;;461.50;1868.80;;;;;;5091920;28;19908;-57
2022/07/14 03:24:26;;;;;;;;;;;461.50;1868.80;;;;;;5091906;28;20274;-57
2022/07/14 03:26:52;;;;;;;;;;;461.50;1868.80;;;;;;5091925;28;19908;-56
2022/07/14 03:29:18;;;;;;;;;;;461.50;1868.80;;;;;;5091625;28;19950;-56
2022/07/14 03:31:43;;;;;;;;;;;461.60;1868.80;;;;;;5091805;28;19922;-56
2022/07/14 03:34:10;;;;;;;;;;;461.70;1843.20;;;;;;5091161;28;20381;-57
2022/07/14 03:36:35;;;;;;;;;;;461.70;1843.20;;;;;;5091883;28;20081;-56
2022/07/14 03:39:01;;;;;;;;;;;486.40;1817.60;;;;;;5091423;28;19912;-56
2022/07/14 03:41:26;;;;;;;;;;;486.40;1817.60;;;;;;5091234;28;19919;-57
2022/07/14 03:43:53;;;;;;;;;;;486.40;1817.60;;;;;;5091544;28;20309;-56
2022/07/14 03:46:18;;;;;;;;;;;486.40;1843.20;;;;;;5091164;28;19954;-56
2022/07/14 03:48:44;;;;;;;;;;;486.50;1843.20;;;;;;5091350;28;19912;-57
2022/07/14 03:51:09;;;;;;;;;;;486.50;1843.20;;;;;;5091176;28;19916;-56
2022/07/14 03:53:35;;;;;;;;;;;486.60;1843.20;;;;;;5091442;28;20097;-56
2022/07/14 03:56:00;;;;;;;;;;;486.60;1843.20;;;;;;5091205;28;19908;-57
2022/07/14 03:58:26;;;;;;;;;;;486.60;1843.20;;;;;;5091250;28;20346;-56
2022/07/14 04:00:52;;;;;;;;;;;486.70;1843.20;;;;;;5090842;28;19927;-56
2022/07/14 04:03:18;;;;;;;;;;;486.70;1868.80;;;;;;5091236;28;19908;-57
2022/07/14 04:05:43;;;;;;;;;;;486.60;1894.40;;;;;;5091052;28;19908;-55
2022/07/14 04:08:09;;;;;;;;;;;486.70;1894.40;;;;;;5090837;28;19908;-56
2022/07/14 04:10:35;;;;;;;;;;;486.70;1868.80;;;;;;5090919;28;19920;-56
2022/07/14 04:13:00;;;;;;;;;;;486.80;1843.20;;;;;;5090999;28;19912;-57
2022/07/14 04:15:28;;;;;;;;;;;486.90;1868.80;;;;;;5090764;28;19959;-57
2022/07/14 04:17:54;;;;;;;;;;;487.00;1868.80;;;;;;5090913;28;19908;-56
2022/07/14 04:20:20;;;;;;;;;;;487.00;1843.20;;;;;;5090990;28;20320;-56
2022/07/14 04:22:47;;;;;;;;;;;487.10;1868.80;;;;;;5090594;28;19912;-56
2022/07/14 04:25:13;;;;;;;;;;;487.10;1843.20;;;;;;5090806;28;19908;-56
2022/07/14 04:27:39;;;;;;;;;;;487.20;1868.80;;;;;;5090686;28;20007;-56
2022/07/14 04:30:05;;;;;;;;;;;487.20;1868.80;;;;;;5090759;28;20014;-56
2022/07/14 04:32:32;;;;;;;;;;;487.30;1868.80;;;;;;5090645;28;19908;-56
2022/07/14 04:34:58;;;;;;;;;;;487.30;1894.40;;;;;;5090715;28;19961;-56
2022/07/14 04:37:24;;;;;;;;;;;512.10;1868.80;;;;;;5090617;28;20259;-56
2022/07/14 04:39:49;;;;;;;;;;;512.20;1843.20;;;;;;5090612;28;19916;-56
2022/07/14 04:42:15;;;;;;;;;;;512.50;1843.20;;;;;;5090543;28;20316;-56
2022/07/14 04:44:43;;;;;;;;;;;563.80;1766.40;;;;;;5090469;28;19912;-56
2022/07/14 04:47:08;;;;;;;;;;;691.50;1408.00;;;;;;5089579;28;20338;-56
2022/07/14 04:52:18;;;;;;;;;;;820.00;1152.00;;;;;;5090289;28;19937;-56
2022/07/14 04:54:45;;;;;;;;;;;;;;;;;;5090551;28;19994;-56
2022/07/14 04:57:11;;;;;;;;;;;870.60;1100.80;;;;;;5090615;28;19914;-57
2022/07/14 04:59:37;;;;;;;;;;;922.10;998.40;;;;;;5089937;28;19908;-57
2022/07/14 05:02:03;;;;;;;;;;;947.70;947.20;;;;;;5090445;28;19951;-57
2022/07/14 05:04:28;;;;;;;;;;;972.90;947.20;;;;;;5090228;28;19908;-57
2022/07/14 05:06:55;;;;;;;;;;;973.50;921.60;;;;;;5090569;28;19908;-57
2022/07/14 05:09:21;;;;;;;;;;;973.70;921.60;;;;;;5090242;28;19916;-57
2022/07/14 05:11:46;;;;;;;;;;;998.80;921.60;;;;;;5089905;28;19973;-58
2022/07/14 05:14:12;;;;;;;;;;;1024.10;896.00;;;;;;5090382;28;20410;-57
2022/07/14 05:16:38;;;;;;;;;;;1049.70;921.60;;;;;;5089664;28;19946;-58
2022/07/14 05:19:04;;;;;;;;;;;1024.70;896.00;;;;;;5090355;28;20377;-57
2022/07/14 05:21:30;;;;;;;;;;;1050.40;870.40;;;;;;5090214;28;19908;-57
2022/07/14 05:23:56;;;;;;;;;;;1075.70;844.80;;;;;;5090059;28;20429;-58
2022/07/14 05:26:22;;;;;;;;;;;1075.80;819.20;;;;;;5090229;28;19908;-59
2022/07/14 05:28:47;;;;;;;;;;;1101.20;844.80;;;;;;5090062;28;20006;-58
2022/07/14 05:31:13;;;;;;;;;;;1101.50;819.20;;;;;;5090114;28;19916;-58
2022/07/14 05:33:39;;;;;;;;;;;1126.60;819.20;;;;;;5089897;28;19970;-58
2022/07/14 05:36:05;;;;;;;;;;;1127.10;819.20;;;;;;5090249;28;19908;-58
2022/07/14 05:38:33;;;;;;;;;;;1152.20;793.60;;;;;;5090079;28;19908;-57
2022/07/14 05:41:03;;;;;;;;;;;1152.90;768.00;;;;;;5089935;28;19912;-58
2022/07/14 05:43:28;;;;;;;;;;;1177.70;768.00;;;;;;5089870;28;20350;-58
2022/07/14 05:45:54;;;;;;;;;;;1178.10;768.00;;;;;;5090075;28;19908;-58
2022/07/14 05:48:20;;;;;;;;;;;1178.30;742.40;;;;;;5090035;28;19912;-57
2022/07/14 05:50:45;;;;;;;;;;;1178.30;742.40;;;;;;5090102;28;20361;-57
2022/07/14 05:53:11;;;;;;;;;;;1203.30;742.40;;;;;;5089892;28;19934;-59
2022/07/14 05:55:36;;;;;;;;;;;1203.80;742.40;;;;;;5089857;28;19978;-59
2022/07/14 05:58:02;;;;;;;;;;;1228.80;742.40;;;;;;5091679;28;19908;-56
2022/07/14 06:00:27;;;;;;;;;;;1228.90;742.40;;;;;;5093241;28;19952;-56
2022/07/14 06:02:53;;;;;;;;;;;1229.40;716.80;;;;;;5093515;28;19908;-56
2022/07/14 06:05:18;;;;;;;;;;;1228.80;742.40;;;;;;5091709;28;19916;-59
2022/07/14 06:07:44;;;;;;;;;;;1229.70;716.80;;;;;;5091654;28;19908;-58
2022/07/14 06:10:11;;;;;;;;;;;1229.70;716.80;;;;;;5091643;28;19916;-58
2022/07/14 06:12:37;;;;;;;;;;;1228.90;742.40;;;;;;5091705;28;19916;-58
2022/07/14 06:15:05;;;;;;;;;;;1229.20;742.40;;;;;;5091729;28;19908;-59
2022/07/14 06:17:31;;;;;;;;;;;1228.90;742.40;;;;;;5091400;28;20267;-59
2022/07/14 06:20:00;;;;;;;;;;;1204.10;716.80;;;;;;5091130;28;19915;-57
2022/07/14 06:22:26;;;;;;;;;;;1229.30;742.40;;;;;;5091711;28;19917;-58
2022/07/14 06:24:52;;;;;;;;;;;1229.00;742.40;;;;;;5091678;28;19915;-57
2022/07/14 06:27:17;;;;;;;;;;;1229.50;716.80;;;;;;5091364;28;20373;-59
2022/07/14 06:29:43;;;;;;;;;;;1254.50;742.40;;;;;;5091498;28;20018;-59
2022/07/14 06:32:09;;;;;;;;;;;1254.40;742.40;;;;;;5090486;28;19939;-57
2022/07/14 06:34:34;;;;;;;;;;;1254.50;742.40;;;;;;5091396;28;19912;-58
2022/07/14 06:37:00;;;;;;;;;;;1255.00;716.80;;;;;;5091379;28;19999;-58
2022/07/14 06:39:25;;;;;;;;;;;1280.00;716.80;;;;;;5091586;28;20407;-58
2022/07/14 06:41:51;;;;;;;;;;;1280.70;691.20;;;;;;5093030;28;19912;-58
2022/07/14 06:44:17;;;;;;;;;;;1305.60;665.60;;;;;;5092741;28;19951;-59
2022/07/14 06:46:43;;;;;;;;;;;1280.70;665.60;;;;;;5092477;28;20337;-58
2022/07/14 06:49:08;;;;;;;;;;;1305.90;640.00;;;;;;5092314;28;20007;-59
2022/07/14 06:51:34;;;;;;;;;;;1255.10;691.20;;;;;;5092802;28;20274;-58
2022/07/14 06:53:59;;;;;;;;;;;1280.20;691.20;;;;;;5092357;28;20278;-58
2022/07/14 06:56:25;;;;;;;;;;;1280.70;665.60;;;;;;5092601;28;19908;-59
2022/07/14 06:58:51;;;;;;;;;;;1280.90;665.60;;;;;;5092390;28;19930;-58
2022/07/14 07:01:17;;;;;;;;;;;1305.70;665.60;;;;;;5089709;28;19920;-58
2022/07/14 07:03:43;;;;;;;;;;;1280.90;640.00;;;;;;5090652;28;19969;-59
2022/07/14 07:08:53;;;;;;;;;;;1305.90;640.00;;;;;;5089888;28;19916;-59
2022/07/14 07:11:18;;;;;;;;;;;1331.40;640.00;;;;;;5090283;28;19946;-58
2022/07/14 07:13:44;;;;;;;;;;;1331.40;614.40;;;;;;5090092;28;19912;-58
2022/07/14 07:16:10;;;;;;;;;;;1356.90;614.40;;;;;;5090784;28;19912;-59
2022/07/14 07:18:36;;;;;;;;;;;1331.60;614.40;;;;;;5090461;28;20263;-59
2022/07/14 07:21:02;;;;;;;;;;;1332.10;588.80;;;;;;5090648;28;19908;-59
2022/07/14 07:23:27;;;;;;;;;;;1331.60;614.40;;;;;;5090405;28;19912;-59
2022/07/14 07:25:53;;;;;;;;;;;1356.80;614.40;;;;;;5090098;28;19909;-59
2022/07/14 07:28:18;;;;;;;;;;;1356.90;614.40;;;;;;5089990;28;19912;-59
2022/07/14 07:30:44;;;;;;;;;;;1357.70;588.80;;;;;;5090179;28;19923;-67
2022/07/14 07:33:09;;;;;;;;;;;1356.90;614.40;;;;;;5089937;28;19908;-65
2022/07/14 07:35:35;;;;;;;;;;;1356.80;614.40;;;;;;5090001;28;19908;-65
2022/07/14 07:38:01;;;;;;;;;;;1357.50;588.80;;;;;;5089907;28;19943;-68
2022/07/14 07:40:26;;;;;;;;;;;1357.50;614.40;;;;;;5089512;28;19912;-66
2022/07/14 07:42:52;;;;;;;;;;;1357.40;588.80;;;;;;5090028;28;19920;-68
2022/07/14 07:45:18;;;;;;;;;;;1357.50;588.80;;;;;;5088339;28;19919;-65
2022/07/14 07:47:43;;;;;;;;;;;1383.10;588.80;;;;;;5089850;28;19954;-65
2022/07/14 07:50:10;;;;;;;;;;;1383.30;563.20;;;;;;5089588;28;19920;-63
2022/07/14 07:52:37;;;;;;;;;;;1408.00;563.20;;;;;;5089499;28;19924;-65
2022/07/14 07:55:09;;;;;;;;;;;1383.10;588.80;;;;;;5089846;28;19959;-62
2022/07/14 07:57:36;;;;;;;;;;;1408.00;563.20;;;;;;5089835;28;19908;-66
2022/07/14 08:00:03;;;;;;;;;;;1408.20;563.20;;;;;;5089512;28;20004;-63
2022/07/14 08:02:29;;;;;;;;;;;1408.00;563.20;;;;;;5089233;28;20350;-63
2022/07/14 08:04:55;;;;;;;;;;;1408.00;563.20;;;;;;5089972;28;19908;-68
2022/07/14 08:07:20;;;;;;;;;;;1383.10;588.80;;;;;;5088919;28;19916;-62
2022/07/14 08:09:46;;;;;;;;;;;1383.30;588.80;;;;;;5089622;28;19928;-63
2022/07/14 08:12:12;;;;;;;;;;;1357.70;588.80;;;;;;5089361;28;20289;-65
2022/07/14 08:14:49;;;;;;;;;;;1332.10;588.80;;;;;;5089539;28;20379;-63
2022/07/14 08:17:16;;;;;;;;;;;1331.60;614.40;;;;;;5091354;28;19908;-69
2022/07/14 08:19:42;;;;;;;;;;;1305.90;614.40;;;;;;5091067;28;19908;-62
2022/07/14 08:22:07;;;;;;;;;;;1280.50;614.40;;;;;;5090502;28;20003;-62
2022/07/14 08:24:33;;;;;;;;;;;1229.00;665.60;;;;;;5090959;28;19908;-69
2022/07/14 08:26:58;;;;;;;;;;;1152.60;691.20;;;;;;5090788;28;19908;-68
2022/07/14 08:29:24;;;;;;;;;;;1101.50;742.40;;;;;;5090798;28;19917;-62
2022/07/14 08:31:49;;;;;;;;;;;1050.10;793.60;;;;;;5090592;28;19908;-62
2022/07/14 08:34:15;;;;;;;;;;;1024.50;819.20;;;;;;5090931;28;20331;-61
2022/07/14 08:36:41;;;;;;;;;;;999.30;844.80;;;;;;5090537;28;19908;-62
2022/07/14 08:39:08;;;;;;;;;;;998.80;844.80;;;;;;5090314;28;19915;-62
2022/07/14 08:41:34;;;;;;;;;;;998.40;896.00;;;;;;5090445;28;19956;-69
2022/07/14 08:44:00;;;;;;;;;;;973.30;896.00;;;;;;5090513;28;19964;-62
2022/07/14 08:46:26;;;;;;;;;;;972.80;896.00;;;;;;5090499;28;20374;-68
2022/07/14 08:48:52;;;;;;;;;;;947.40;870.40;;;;;;5090342;28;19908;-62
2022/07/14 08:51:19;;;;;;;;;;;922.50;896.00;;;;;;5090624;28;20277;-63
2022/07/14 08:53:44;;;;;;;;;;;922.00;896.00;;;;;;5090579;28;20319;-62
2022/07/14 08:56:11;;;;;;;;;;;896.90;896.00;;;;;;5090056;28;20015;-62
2022/07/14 08:58:38;;;;;;;;;;;896.90;921.60;;;;;;5090090;28;19948;-62
2022/07/14 09:01:03;;;;;;;;;;;921.60;921.60;;;;;;5090226;28;19920;-67
2022/07/14 09:03:29;;;;;;;;;;;921.90;921.60;;;;;;5090113;28;19915;-64
2022/07/14 09:05:54;;;;;;;;;;;921.60;921.60;;;;;;5090880;28;19908;-64
2022/07/14 09:08:20;;;;;;;;;;;921.60;947.20;;;;;;5090132;28;20328;-68
2022/07/14 09:10:46;;;;;;;;;;;896.90;921.60;;;;;;5090357;28;19955;-66
2022/07/14 09:13:13;;;;;;;;;;;896.70;921.60;;;;;;5090208;28;20358;-66
2022/07/14 09:15:44;;;;;;;;;;;921.70;947.20;;;;;;5090278;28;19909;-66
2022/07/14 09:18:12;;;;;;;;;;;896.90;896.00;;;;;;5090078;28;19950;-63
2022/07/14 09:20:38;;;;;;;;;;;896.80;921.60;;;;;;5090052;28;19908;-61
2022/07/14 09:23:04;;;;;;;;;;;896.50;921.60;;;;;;5090397;28;19915;-67
2022/07/14 09:25:34;;;;;;;;;;;896.30;972.80;;;;;;5090028;28;19909;-62
2022/07/14 09:28:00;;;;;;;;;;;896.50;921.60;;;;;;5090287;28;20334;-61
2022/07/14 09:30:26;;;;;;;;;;;896.60;921.60;;;;;;5090160;28;19923;-68
2022/07/14 09:32:59;;;;;;;;;;;896.30;947.20;;;;;;5091396;28;19908;-62
2022/07/14 09:35:34;;;;;;;;;;;896.30;921.60;;;;;;5091963;28;19916;-67
2022/07/14 09:38:00;;;;;;;;;;;896.00;947.20;;;;;;5092172;28;20007;-62
2022/07/14 09:40:30;;;;;;;;;;;896.00;972.80;;;;;;5092364;28;19912;-67
2022/07/14 09:43:03;;;;;;;;;;;871.10;972.80;;;;;;5092352;28;19916;-62
2022/07/14 09:45:30;;;;;;;;;;;871.30;947.20;;;;;;5091926;28;19908;-61
2022/07/14 09:47:58;;;;;;;;;;;896.20;947.20;;;;;;5092474;28;19962;-67
2022/07/14 09:50:39;;;;;;;;;;;871.20;921.60;;;;;;5091636;28;20381;-61
2022/07/14 09:53:23;;;;;;;;;;;871.30;921.60;;;;;;5092140;28;20416;-62
2022/07/14 09:55:50;;;;;;;;;;;871.30;947.20;;;;;;5091806;28;20372;-61
2022/07/14 09:58:15;;;;;;;;;;;871.10;947.20;;;;;;5092015;28;20453;-63
2022/07/14 10:00:42;;;;;;;;;;;870.90;947.20;;;;;;5091762;28;20023;-62
2022/07/14 10:03:08;;;;;;;;;;;870.90;947.20;;;;;;5091522;28;19908;-64
2022/07/14 10:05:34;;;;;;;;;;;871.00;972.80;;;;;;5091827;28;19912;-62
2022/07/14 10:08:03;;;;;;;;;;;871.10;998.40;;;;;;5091877;28;19912;-67
2022/07/14 10:10:32;;;;;;;;;;;871.10;972.80;;;;;;5092230;28;19920;-67
2022/07/14 10:12:57;;;;;;;;;;;871.10;998.40;;;;;;5093614;28;19958;-61
2022/07/14 10:15:23;;;;;;;;;;;871.10;972.80;;;;;;5093550;28;19908;-64
2022/07/14 10:17:49;;;;;;;;;;;871.10;972.80;;;;;;5093131;28;19908;-62
2022/07/14 10:20:16;;;;;;;;;;;870.90;972.80;;;;;;5093254;28;19940;-61
2022/07/14 10:22:43;;;;;;;;;;;871.10;972.80;;;;;;5093220;28;19919;-61
2022/07/14 10:25:09;;;;;;;;;;;870.90;947.20;;;;;;5092791;28;19999;-61
2022/07/14 10:27:37;;;;;;;;;;;870.90;947.20;;;;;;5093324;28;19916;-61
2022/07/14 10:30:03;;;;;;;;;;;870.90;972.80;;;;;;5093013;28;19916;-61
2022/07/14 10:32:38;;;;;;;;;;;870.90;998.40;;;;;;5092780;28;19915;-61
2022/07/14 10:35:13;;;;;;;;;;;870.80;998.40;;;;;;5092982;28;20000;-61
2022/07/14 10:37:44;;;;;;;;;;;870.90;998.40;;;;;;5092307;28;20376;-66
2022/07/14 10:40:24;;;;;;;;;;;870.90;998.40;;;;;;5092161;28;20441;-60
2022/07/14 10:42:55;;;;;;;;;;;870.70;972.80;;;;;;5092618;28;19912;-60
2022/07/14 10:45:20;;;;;;;;;;;870.60;972.80;;;;;;5092604;28;19912;-68
2022/07/14 10:47:48;;;;;;;;;;;870.40;972.80;;;;;;5089877;28;19923;-63
2022/07/14 10:50:18;;;;;;;;;;;845.70;998.40;;;;;;5090948;28;19920;-63
2022/07/14 10:53:04;;;;;;;;;;;845.60;998.40;;;;;;5091001;28;19908;-68
2022/07/14 10:55:30;;;;;;;;;;;845.70;1024.00;;;;;;5090060;28;19923;-62
2022/07/14 10:57:58;;;;;;;;;;;844.90;1024.00;;;;;;5090951;28;19915;-67
2022/07/14 11:00:39;;;;;;;;;;;845.10;1049.60;;;;;;5090237;28;20053;-66
2022/07/14 11:03:24;;;;;;;;;;;844.90;1024.00;;;;;;5090734;28;20358;-67
2022/07/14 11:08:31;;;;;;;;;;;820.10;998.40;;;;;;5090506;28;19994;-66
2022/07/14 11:10:58;;;;;;;;;;;819.70;1024.00;;;;;;5090350;28;19931;-65
2022/07/14 11:13:23;;;;;;;;;;;819.90;1024.00;;;;;;5090222;28;19912;-68
2022/07/14 11:15:56;;;;;;;;;;;844.80;1075.20;;;;;;5090125;28;20444;-61
2022/07/14 11:18:28;;;;;;;;;;;845.00;1075.20;;;;;;5090754;28;19912;-68
2022/07/14 11:21:11;;;;;;;;;;;845.20;998.40;;;;;;5090588;28;19908;-68
2022/07/14 11:23:37;;;;;;;;;;;845.10;1049.60;;;;;;5090230;28;19916;-63
2022/07/14 11:26:05;;;;;;;;;;;845.20;1049.60;;;;;;5089878;28;19923;-62
2022/07/14 11:28:39;;;;;;;;;;;845.30;1024.00;;;;;;5090132;28;20358;-66
2022/07/14 11:31:12;;;;;;;;;;;845.30;998.40;;;;;;5090276;28;19950;-67
2022/07/14 11:36:17;;;;;;;;;;;844.80;998.40;;;;;;5089509;28;20039;-66
2022/07/14 11:36:27;;;;;;;;;;;845.20;1049.60;;;;;;5089990;28;20007;-63
2022/07/14 11:39:11;;;;;;;;;;;845.20;998.40;;;;;;5089524;28;19915;-64
2022/07/14 11:41:41;;;;;;;;;;;845.20;1024.00;;;;;;5089859;28;19912;-63
2022/07/14 11:44:07;;;;;;;;;;;845.20;1024.00;;;;;;5089767;28;19916;-68
2022/07/14 11:46:32;;;;;;;;;;;845.30;972.80;;;;;;5090042;28;19921;-64
2022/07/14 11:49:00;;;;;;;;;;;845.40;998.40;;;;;;5089760;28;19908;-64
2022/07/14 11:51:26;;;;;;;;;;;845.30;947.20;;;;;;5089370;28;19958;-66
2022/07/14 11:53:54;;;;;;;;;;;845.10;947.20;;;;;;5089823;28;19999;-65
2022/07/14 11:56:24;;;;;;;;;;;844.80;947.20;;;;;;5090043;28;19918;-61
2022/07/14 11:58:50;;;;;;;;;;;844.80;972.80;;;;;;5091361;28;19950;-63
2022/07/14 12:01:16;;;;;;;;;;;845.10;972.80;;;;;;5090937;28;20336;-61
2022/07/14 12:03:41;;;;;;;;;;;845.20;972.80;;;;;;5091273;28;19912;-64
2022/07/14 12:06:07;;;;;;;;;;;845.30;998.40;;;;;;5090909;28;19908;-61
2022/07/14 12:08:35;;;;;;;;;;;845.40;972.80;;;;;;5091066;28;20056;-61
2022/07/14 12:11:08;;;;;;;;;;;845.40;947.20;;;;;;5090813;28;19923;-61
2022/07/14 12:13:43;;;;;;;;;;;845.40;972.80;;;;;;5090940;28;19916;-66
2022/07/14 12:16:09;;;;;;;;;;;845.40;972.80;;;;;;5090699;28;19916;-62
2022/07/14 12:18:35;;;;;;;;;;;845.20;947.20;;;;;;5090937;28;19938;-67
2022/07/14 12:21:00;;;;;;;;;;;845.00;972.80;;;;;;5090769;28;19908;-66
2022/07/14 12:23:27;;;;;;;;;;;845.30;998.40;;;;;;5090934;28;19912;-62
2022/07/14 12:25:52;;;;;;;;;;;845.30;972.80;;;;;;5090992;28;19908;-62
2022/07/14 12:28:19;;;;;;;;;;;845.10;972.80;;;;;;5090852;28;20264;-65
2022/07/14 12:30:45;;;;;;;;;;;844.90;972.80;;;;;;5090700;28;19916;-61
2022/07/14 12:33:11;;;;;;;;;;;820.10;947.20;;;;;;5090557;28;19931;-65
2022/07/14 12:35:39;;;;;;;;;;;820.10;947.20;;;;;;5090561;28;19957;-65
2022/07/14 12:38:05;;;;;;;;;;;845.00;998.40;;;;;;5090694;28;19908;-66
2022/07/14 12:40:32;;;;;;;;;;;845.20;998.40;;;;;;5090515;28;19952;-61
2022/07/14 12:42:57;;;;;;;;;;;845.00;972.80;;;;;;5090386;28;19916;-67
2022/07/14 12:45:24;;;;;;;;;;;845.10;972.80;;;;;;5090545;28;20380;-66
2022/07/14 12:47:50;;;;;;;;;;;845.20;998.40;;;;;;5090342;28;19909;-65
2022/07/14 12:50:20;;;;;;;;;;;845.20;998.40;;;;;;5090304;28;19916;-62
2022/07/14 12:52:53;;;;;;;;;;;845.40;998.40;;;;;;5090769;28;19908;-65
2022/07/14 12:55:31;;;;;;;;;;;845.50;998.40;;;;;;5090330;28;19911;-64
2022/07/14 12:58:06;;;;;;;;;;;845.50;972.80;;;;;;5090385;28;19912;-61
2022/07/14 13:00:33;;;;;;;;;;;845.20;972.80;;;;;;5090370;28;19943;-64
2022/07/14 13:03:11;;;;;;;;;;;845.10;998.40;;;;;;5090192;28;19947;-61
2022/07/14 13:05:37;;;;;;;;;;;845.10;972.80;;;;;;5090235;28;19919;-61
2022/07/14 13:08:21;;;;;;;;;;;845.00;972.80;;;;;;5092210;28;20002;-62
2022/07/14 13:10:54;;;;;;;;;;;820.10;947.20;;;;;;5094102;28;20389;-61
2022/07/14 13:13:26;;;;;;;;;;;820.10;972.80;;;;;;5094618;28;19912;-61
2022/07/14 13:15:52;;;;;;;;;;;820.00;972.80;;;;;;5094812;28;20337;-61
2022/07/14 13:18:17;;;;;;;;;;;820.10;972.80;;;;;;5094267;28;19959;-61
2022/07/14 13:20:52;;;;;;;;;;;820.10;972.80;;;;;;5094355;28;19908;-61
2022/07/14 13:23:19;;;;;;;;;;;820.10;972.80;;;;;;5094288;28;19953;-66
2022/07/14 13:25:44;;;;;;;;;;;844.80;998.40;;;;;;5094181;28;19908;-62
2022/07/14 13:28:10;;;;;;;;;;;820.10;947.20;;;;;;5093915;28;19912;-61
2022/07/14 13:30:36;;;;;;;;;;;844.90;998.40;;;;;;5094113;28;19955;-66
2022/07/14 13:33:01;;;;;;;;;;;845.10;1024.00;;;;;;5094086;28;19934;-61
2022/07/14 13:35:27;;;;;;;;;;;844.90;972.80;;;;;;5091794;28;19912;-65
2022/07/14 13:37:52;;;;;;;;;;;844.90;972.80;;;;;;5092538;28;19999;-65
2022/07/14 13:40:18;;;;;;;;;;;844.90;998.40;;;;;;5092102;28;19908;-62
2022/07/14 13:42:43;;;;;;;;;;;845.20;1024.00;;;;;;5092009;28;19979;-61
2022/07/14 13:45:09;;;;;;;;;;;844.90;972.80;;;;;;5092124;28;19908;-61
2022/07/14 13:47:34;;;;;;;;;;;844.90;972.80;;;;;;5091996;28;20308;-62
2022/07/14 13:52:44;;;;;;;;;;;844.80;998.40;;;;;;5092639;28;20003;-61
2022/07/14 13:55:10;;;;;;;;;;;820.10;972.80;;;;;;5091922;28;20006;-63
2022/07/14 13:57:35;;;;;;;;;;;844.80;998.40;;;;;;5092206;28;20381;-62
2022/07/14 14:00:01;;;;;;;;;;;820.10;972.80;;;;;;5091562;28;19916;-62